createdAt,value
2023-05-12T00:00:43.405Z,49.63
2023-05-12T00:03:12.924Z,49.60
2023-05-12T00:05:40.794Z,49.75
2023-05-12T00:08:08.381Z,49.99
2023-05-12T00:10:36.382Z,50.11
2023-05-12T00:13:05.128Z,50.30
2023-05-12T00:15:32.808Z,50.37
2023-05-12T00:18:00.456Z,51.05
2023-05-12T00:20:28.223Z,51.60
2023-05-12T00:22:55.963Z,51.43
2023-05-12T00:25:23.722Z,51.39
2023-05-12T00:27:51.334Z,51.41
2023-05-12T00:30:21.585Z,52.08
2023-05-12T00:32:49.458Z,52.03
2023-05-12T00:35:17.769Z,52.52
2023-05-12T00:37:45.617Z,52.69
2023-05-12T00:40:13.564Z,53.10
2023-05-12T00:42:41.707Z,53.64
2023-05-12T00:45:10.444Z,53.80
2023-05-12T00:47:38.743Z,53.68
2023-05-12T00:50:08.068Z,53.80
2023-05-12T00:52:36.125Z,54.21
2023-05-12T00:55:04.999Z,54.66
2023-05-12T00:57:33.356Z,55.28
2023-05-12T01:00:01.301Z,55.77
2023-05-12T01:02:30.042Z,55.87
2023-05-12T01:04:58.021Z,55.71
2023-05-12T01:07:27.637Z,56.64
2023-05-12T01:09:56.085Z,55.90
2023-05-12T01:12:25.457Z,56.85
2023-05-12T01:14:55.714Z,56.46
2023-05-12T01:17:31.464Z,56.95
2023-05-12T01:20:04.073Z,57.23
2023-05-12T01:22:33.862Z,57.41
2023-05-12T01:25:08.356Z,57.60
2023-05-12T01:27:39.875Z,57.39
2023-05-12T01:30:14.111Z,57.77
2023-05-12T01:32:42.552Z,57.74
2023-05-12T01:35:10.720Z,57.74
2023-05-12T01:37:40.127Z,58.02
2023-05-12T01:40:09.373Z,58.16
2023-05-12T01:42:40.887Z,58.28
2023-05-12T01:45:10.177Z,58.08
2023-05-12T01:47:38.406Z,58.50
2023-05-12T01:50:08.736Z,58.90
2023-05-12T01:52:36.808Z,58.76
2023-05-12T01:55:07.677Z,58.85
2023-05-12T01:57:37.360Z,58.99
2023-05-12T02:00:06.566Z,58.95
2023-05-12T02:02:36.048Z,58.93
2023-05-12T02:05:04.691Z,59.39
2023-05-12T02:07:32.421Z,59.19
2023-05-12T02:09:59.921Z,59.37
2023-05-12T02:12:28.068Z,59.78
2023-05-12T02:14:55.937Z,59.83
2023-05-12T02:17:24.520Z,60.05
2023-05-12T02:19:52.530Z,59.79
2023-05-12T02:22:20.320Z,59.75
2023-05-12T02:24:48.088Z,59.86
2023-05-12T02:27:17.345Z,59.75
2023-05-12T02:29:45.263Z,59.58
2023-05-12T02:32:13.130Z,59.60
2023-05-12T02:34:42.398Z,59.46
2023-05-12T02:37:10.054Z,59.49
2023-05-12T02:39:37.776Z,59.48
2023-05-12T02:42:06.668Z,59.46
2023-05-12T02:44:34.187Z,59.44
2023-05-12T02:47:01.871Z,59.45
2023-05-12T02:49:29.821Z,59.48
2023-05-12T02:51:57.663Z,59.43
2023-05-12T02:54:25.355Z,59.48
2023-05-12T02:56:53.076Z,59.54
2023-05-12T02:59:21.003Z,59.58
2023-05-12T03:01:48.667Z,59.70
2023-05-12T03:04:16.439Z,59.56
2023-05-12T03:06:44.512Z,59.66
2023-05-12T03:09:13.007Z,59.73
2023-05-12T03:11:41.338Z,59.57
2023-05-12T03:14:08.944Z,59.42
2023-05-12T03:16:37.004Z,59.35
2023-05-12T03:19:07.793Z,59.34
2023-05-12T03:21:35.560Z,59.45
2023-05-12T03:24:05.268Z,59.22
2023-05-12T03:26:32.886Z,59.13
2023-05-12T03:29:00.534Z,58.93
2023-05-12T03:31:28.396Z,58.95
2023-05-12T03:33:56.265Z,59.03
2023-05-12T03:36:24.093Z,58.91
2023-05-12T03:38:51.552Z,58.65
2023-05-12T03:41:19.250Z,57.99
2023-05-12T03:43:46.921Z,56.35
2023-05-12T03:46:14.747Z,55.39
2023-05-12T03:48:42.503Z,54.98
2023-05-12T03:51:10.683Z,54.89
2023-05-12T03:53:40.295Z,53.90
2023-05-12T03:56:08.484Z,54.05
2023-05-12T03:58:36.136Z,54.08
2023-05-12T04:01:04.008Z,54.03
2023-05-12T04:03:31.440Z,53.96
2023-05-12T04:06:00.879Z,53.62
2023-05-12T04:08:29.462Z,52.44
2023-05-12T04:10:58.988Z,52.69
2023-05-12T04:13:28.888Z,52.69
2023-05-12T04:15:57.929Z,52.54
2023-05-12T04:18:28.313Z,52.37
2023-05-12T04:20:56.201Z,52.14
2023-05-12T04:23:23.953Z,52.30
2023-05-12T04:25:51.704Z,52.13
2023-05-12T04:28:19.390Z,51.73
2023-05-12T04:30:47.816Z,49.82
2023-05-12T04:33:17.568Z,48.83
2023-05-12T04:35:46.349Z,49.13
2023-05-12T04:38:14.443Z,48.47
2023-05-12T04:40:42.181Z,47.10
2023-05-12T04:44:00.138Z,46.10
2023-05-12T04:45:39.456Z,46.36
2023-05-12T04:48:07.169Z,46.27
2023-05-12T04:50:34.788Z,45.42
2023-05-12T04:53:02.756Z,44.72
2023-05-12T04:55:33.618Z,44.69
2023-05-12T04:58:03.505Z,44.92
2023-05-12T05:00:32.276Z,44.35
2023-05-12T05:03:00.032Z,44.76
2023-05-12T05:05:27.749Z,43.89
2023-05-12T05:07:55.273Z,43.21
2023-05-12T05:10:24.835Z,43.47
2023-05-12T05:12:52.893Z,42.56
2023-05-12T05:15:21.413Z,43.79
2023-05-12T05:17:49.567Z,43.20
2023-05-12T05:20:17.978Z,44.05
2023-05-12T05:22:45.735Z,43.90
2023-05-12T05:25:13.706Z,43.90
2023-05-12T05:27:41.605Z,43.53
2023-05-12T05:30:09.705Z,43.13
2023-05-12T05:32:39.816Z,42.58
2023-05-12T05:35:08.404Z,41.98
2023-05-12T05:37:39.193Z,41.93
2023-05-12T05:40:08.832Z,41.43
2023-05-12T05:42:36.961Z,41.87
2023-05-12T05:45:06.034Z,42.05
2023-05-12T05:47:33.909Z,41.31
2023-05-12T05:50:01.587Z,41.19
2023-05-12T05:52:31.363Z,41.28
2023-05-12T05:55:00.996Z,41.48
2023-05-12T05:57:28.966Z,40.31
2023-05-12T05:59:58.526Z,37.52
2023-05-12T06:02:27.676Z,37.38
2023-05-12T06:04:55.910Z,34.93
2023-05-12T06:07:25.714Z,34.27
2023-05-12T06:09:54.555Z,33.75
2023-05-12T06:12:22.338Z,32.03
2023-05-12T06:14:50.671Z,29.51
2023-05-12T06:17:18.381Z,31.47
2023-05-12T06:19:47.444Z,29.83
2023-05-12T06:22:15.676Z,28.29
2023-05-12T06:24:43.837Z,28.59
2023-05-12T06:27:11.677Z,27.06
2023-05-12T06:29:39.534Z,27.09
2023-05-12T06:32:07.932Z,25.89
2023-05-12T06:34:36.572Z,26.13
2023-05-12T06:37:04.354Z,25.78
2023-05-12T06:39:32.106Z,25.54
2023-05-12T06:42:00.283Z,25.70
2023-05-12T06:44:30.553Z,26.11
2023-05-12T06:46:58.721Z,26.46
2023-05-12T06:49:28.787Z,26.72
2023-05-12T06:52:07.707Z,26.91
2023-05-12T06:54:35.213Z,27.19
2023-05-12T06:57:02.931Z,27.23
2023-05-12T06:59:30.688Z,27.50
2023-05-12T07:01:58.589Z,28.53
2023-05-12T07:04:26.566Z,28.94
2023-05-12T07:06:54.183Z,28.72
2023-05-12T07:09:21.910Z,29.27
2023-05-12T07:11:50.589Z,29.53
2023-05-12T07:14:18.040Z,29.46
2023-05-12T07:16:46.497Z,28.36
2023-05-12T07:19:14.500Z,28.80
2023-05-12T07:21:42.183Z,28.81
2023-05-12T07:24:11.075Z,28.60
2023-05-12T07:26:38.889Z,27.84
2023-05-12T07:29:07.003Z,27.12
2023-05-12T07:31:35.404Z,27.51
2023-05-12T07:34:03.865Z,27.68
2023-05-12T07:36:32.151Z,27.21
2023-05-12T07:38:59.685Z,27.84
2023-05-12T07:41:27.349Z,27.80
2023-05-12T07:43:55.068Z,27.95
2023-05-12T07:46:23.146Z,27.77
2023-05-12T07:48:51.041Z,27.15
2023-05-12T07:51:18.804Z,27.68
2023-05-12T07:53:46.623Z,27.47
2023-05-12T07:56:14.471Z,28.01
2023-05-12T07:58:42.072Z,28.68
2023-05-12T08:01:10.207Z,27.60
2023-05-12T08:03:38.042Z,27.69
2023-05-12T08:06:06.830Z,27.18
2023-05-12T08:08:36.090Z,27.40
2023-05-12T08:11:04.055Z,27.89
2023-05-12T08:13:32.040Z,27.76
2023-05-12T08:15:59.572Z,27.95
2023-05-12T08:18:29.557Z,27.19
2023-05-12T08:20:58.026Z,27.34
2023-05-12T08:23:26.227Z,26.61
2023-05-12T08:25:55.993Z,27.63
2023-05-12T08:28:23.733Z,27.92
2023-05-12T08:30:54.303Z,28.63
2023-05-12T08:33:22.979Z,26.37
2023-05-12T08:35:51.400Z,26.93
2023-05-12T08:38:21.511Z,27.61
2023-05-12T08:41:06.828Z,27.95
2023-05-12T08:43:51.734Z,27.91
2023-05-12T08:46:22.080Z,27.25
2023-05-12T08:48:52.065Z,27.80
2023-05-12T08:51:20.857Z,28.12
2023-05-12T08:53:50.195Z,27.29
2023-05-12T08:58:52.028Z,27.37
2023-05-12T09:01:20.768Z,27.56
2023-05-12T09:03:48.742Z,28.03
2023-05-12T09:06:17.610Z,27.15
2023-05-12T09:08:45.494Z,27.54
2023-05-12T09:11:17.406Z,27.67
2023-05-12T09:14:04.454Z,28.05
2023-05-12T09:16:43.239Z,27.47
2023-05-12T09:19:11.392Z,28.70
2023-05-12T09:21:39.775Z,29.04
2023-05-12T09:24:08.466Z,29.55
2023-05-12T09:26:55.313Z,28.88
2023-05-12T09:29:30.883Z,28.32
2023-05-12T09:31:54.948Z,28.22
2023-05-12T09:34:37.701Z,27.94
2023-05-12T09:37:07.629Z,28.13
2023-05-12T09:39:36.053Z,28.96
2023-05-12T09:42:04.530Z,28.42
2023-05-12T09:44:32.846Z,28.90
2023-05-12T09:47:07.893Z,29.48
2023-05-12T09:49:35.874Z,28.81
2023-05-12T09:52:04.803Z,29.32
2023-05-12T09:54:33.883Z,28.38
2023-05-12T09:57:06.427Z,29.03
2023-05-12T09:59:37.865Z,29.78
2023-05-12T10:02:08.742Z,29.92
2023-05-12T10:04:50.264Z,29.75
2023-05-12T10:07:22.312Z,30.39
2023-05-12T10:09:50.498Z,29.92
2023-05-12T10:12:18.632Z,30.06
2023-05-12T10:14:49.921Z,29.87
2023-05-12T10:17:20.170Z,30.08
2023-05-12T10:19:49.774Z,29.82
2023-05-12T10:22:19.598Z,29.58
2023-05-12T10:24:48.950Z,29.54
2023-05-12T10:27:18.227Z,29.86
2023-05-12T10:29:48.029Z,29.87
2023-05-12T10:32:17.515Z,29.81
2023-05-12T10:34:45.221Z,29.91
2023-05-12T10:37:13.026Z,29.99
2023-05-12T10:39:51.561Z,29.98
2023-05-12T10:42:25.340Z,29.58
2023-05-12T10:44:55.756Z,29.35
2023-05-12T10:47:27.223Z,30.10
2023-05-12T10:49:58.340Z,30.23
2023-05-12T10:52:27.582Z,30.39
2023-05-12T10:55:04.549Z,30.33
2023-05-12T10:57:33.573Z,30.08
2023-05-12T11:00:04.962Z,29.27
2023-05-12T11:02:35.969Z,28.95
2023-05-12T11:05:13.707Z,29.73
2023-05-12T11:07:49.992Z,30.02
2023-05-12T11:10:19.640Z,29.83
2023-05-12T11:12:47.811Z,29.55
2023-05-12T11:15:17.809Z,29.76
2023-05-12T11:17:46.482Z,30.18
2023-05-12T11:20:24.948Z,30.72
2023-05-12T11:22:53.730Z,31.17
2023-05-12T11:25:21.734Z,29.85
2023-05-12T11:27:50.276Z,30.75
2023-05-12T11:30:19.279Z,30.50
2023-05-12T11:32:47.394Z,30.13
2023-05-12T11:35:17.814Z,29.88
2023-05-12T11:37:46.472Z,30.19
2023-05-12T11:40:22.704Z,30.84
2023-05-12T11:42:51.803Z,31.48
2023-05-12T11:45:29.054Z,31.61
2023-05-12T11:48:13.414Z,32.17
2023-05-12T11:50:46.963Z,32.19
2023-05-12T11:53:20.384Z,33.18
2023-05-12T11:55:53.698Z,33.24
2023-05-12T11:58:35.660Z,33.59
2023-05-12T12:01:15.573Z,34.45
2023-05-12T12:03:49.030Z,34.90
2023-05-12T12:06:18.033Z,35.55
2023-05-12T12:08:59.612Z,35.98
2023-05-12T12:11:31.102Z,36.03
2023-05-12T12:14:01.979Z,36.86
2023-05-12T12:16:33.969Z,37.18
2023-05-12T12:19:10.105Z,37.86
2023-05-12T12:21:39.551Z,38.34
2023-05-12T12:24:08.625Z,38.58
2023-05-12T12:26:45.493Z,38.75
2023-05-12T12:29:15.256Z,39.03
2023-05-12T12:31:43.346Z,39.51
2023-05-12T12:34:11.297Z,40.09
2023-05-12T12:36:41.864Z,40.63
2023-05-12T12:39:10.048Z,40.69
2023-05-12T12:41:37.672Z,40.64
2023-05-12T12:44:06.510Z,40.92
2023-05-12T12:46:34.272Z,40.89
2023-05-12T12:49:02.233Z,41.09
2023-05-12T12:51:44.559Z,41.60
2023-05-12T12:54:01.567Z,42.06
2023-05-12T12:56:29.432Z,42.47
2023-05-12T12:58:57.391Z,42.66
2023-05-12T13:01:24.993Z,42.99
2023-05-12T13:03:52.782Z,42.98
2023-05-12T13:06:20.658Z,43.55
2023-05-12T13:08:50.108Z,44.22
2023-05-12T13:11:18.292Z,44.22
2023-05-12T13:13:46.116Z,45.20
2023-05-12T13:16:15.891Z,45.95
2023-05-12T13:18:45.353Z,46.56
2023-05-12T13:21:19.269Z,47.60
2023-05-12T13:23:49.440Z,48.33
2023-05-12T13:26:19.068Z,48.53
2023-05-12T13:28:47.856Z,50.10
2023-05-12T13:31:15.788Z,51.04
2023-05-12T13:33:43.840Z,51.72
2023-05-12T13:36:12.367Z,52.31
2023-05-12T13:38:40.425Z,52.79
2023-05-12T13:41:10.312Z,53.40
2023-05-12T13:43:38.596Z,54.00
2023-05-12T13:46:07.977Z,53.67
2023-05-12T13:48:37.102Z,53.79
2023-05-12T13:51:10.290Z,53.88
2023-05-12T13:53:39.161Z,54.92
2023-05-12T13:56:09.267Z,56.08
2023-05-12T13:58:41.795Z,55.89
2023-05-12T14:04:28.238Z,56.91
2023-05-12T14:06:56.134Z,58.13
2023-05-12T14:09:26.574Z,57.81
2023-05-12T14:11:55.772Z,58.85
2023-05-12T14:14:32.744Z,58.65
2023-05-12T14:17:01.424Z,58.39
2023-05-12T14:19:30.294Z,58.17
2023-05-12T14:22:05.894Z,58.63
2023-05-12T14:24:32.442Z,58.29
2023-05-12T14:27:00.780Z,59.07
2023-05-12T14:29:36.127Z,59.43
2023-05-12T14:32:06.286Z,59.56
2023-05-12T14:34:34.243Z,60.01
2023-05-12T14:37:03.292Z,60.44
2023-05-12T14:39:31.242Z,60.55
2023-05-12T14:41:59.554Z,61.95
2023-05-12T14:44:28.353Z,62.35
2023-05-12T14:46:56.230Z,63.27
2023-05-12T14:49:25.035Z,63.59
2023-05-12T14:51:53.072Z,64.16
2023-05-12T14:57:04.700Z,66.30
2023-05-12T14:59:32.605Z,66.15
2023-05-12T15:02:04.161Z,66.18
2023-05-12T15:04:33.049Z,66.84
2023-05-12T15:07:01.298Z,66.84
2023-05-12T15:09:29.862Z,66.53
2023-05-12T15:12:04.845Z,67.01
2023-05-12T15:14:34.088Z,67.36
2023-05-12T15:17:05.244Z,66.95
2023-05-12T15:19:44.438Z,67.70
2023-05-12T15:22:15.244Z,67.37
2023-05-12T15:24:46.204Z,67.29
2023-05-12T15:27:27.382Z,67.73
2023-05-12T15:29:55.188Z,67.58
2023-05-12T15:32:23.144Z,67.46
2023-05-12T15:34:51.507Z,68.77
2023-05-12T15:37:19.069Z,68.74
2023-05-12T15:39:46.942Z,68.77
2023-05-12T15:42:22.249Z,68.12
2023-05-12T15:44:44.498Z,69.14
2023-05-12T15:47:12.580Z,69.46
2023-05-12T15:49:40.390Z,68.81
2023-05-12T15:52:10.923Z,68.96
2023-05-12T15:54:38.595Z,69.29
2023-05-12T15:57:08.033Z,68.76
2023-05-12T15:59:37.085Z,68.99
2023-05-12T16:02:04.753Z,68.82
2023-05-12T16:04:33.508Z,68.78
2023-05-12T16:07:01.073Z,69.25
2023-05-12T16:09:29.134Z,69.06
2023-05-12T16:11:57.238Z,68.86
2023-05-12T16:14:25.041Z,69.16
2023-05-12T16:16:53.874Z,69.97
2023-05-12T16:19:22.318Z,70.47
2023-05-12T16:21:50.226Z,69.62
2023-05-12T16:24:17.645Z,70.73
2023-05-12T16:26:45.575Z,70.73
2023-05-12T16:29:13.238Z,70.93
2023-05-12T16:31:40.932Z,71.20
2023-05-12T16:34:08.504Z,71.20
2023-05-12T16:36:36.229Z,71.40
2023-05-12T16:39:06.824Z,71.60
2023-05-12T16:41:37.366Z,72.59
2023-05-12T16:44:05.202Z,72.51
2023-05-12T16:46:33.199Z,72.21
2023-05-12T16:49:01.150Z,72.04
2023-05-12T16:51:32.572Z,72.10
2023-05-12T16:54:00.299Z,71.95
2023-05-12T16:56:28.007Z,72.11
2023-05-12T16:58:56.082Z,71.87
2023-05-12T17:01:24.051Z,71.81
2023-05-12T17:03:52.077Z,71.91
2023-05-12T17:06:20.005Z,72.11
2023-05-12T17:08:47.653Z,72.05
2023-05-12T17:11:15.514Z,71.45
2023-05-12T17:13:45.087Z,71.83
2023-05-12T17:16:12.864Z,71.40
2023-05-12T17:21:13.536Z,71.62
2023-05-12T17:23:41.271Z,71.99
2023-05-12T17:26:11.103Z,72.20
2023-05-12T17:28:40.881Z,72.36
2023-05-12T17:31:08.870Z,72.94
2023-05-12T17:33:39.279Z,72.51
2023-05-12T17:36:13.506Z,72.47
2023-05-12T17:38:44.348Z,72.15
2023-05-12T17:41:13.182Z,72.35
2023-05-12T17:43:45.855Z,72.34
2023-05-12T17:46:16.122Z,72.07
2023-05-12T17:48:46.796Z,71.84
2023-05-12T17:51:18.417Z,71.71
2023-05-12T17:54:08.563Z,71.69
2023-05-12T17:56:36.782Z,71.54
2023-05-12T17:59:06.528Z,71.71
2023-05-12T18:01:37.937Z,71.61
2023-05-12T18:04:07.913Z,71.65
2023-05-12T18:06:35.926Z,71.54
2023-05-12T18:09:04.491Z,71.47
2023-05-12T18:11:33.860Z,71.79
2023-05-12T18:14:05.623Z,71.78
2023-05-12T18:16:34.975Z,72.14
2023-05-12T18:19:03.418Z,72.07
2023-05-12T18:21:36.786Z,72.19
2023-05-12T18:24:08.330Z,72.18
2023-05-12T18:26:36.720Z,72.59
2023-05-12T18:29:10.170Z,72.47
2023-05-12T18:31:42.154Z,72.21
2023-05-12T18:34:11.112Z,72.23
2023-05-12T18:36:39.616Z,72.06
2023-05-12T18:39:09.273Z,72.02
2023-05-12T18:41:38.678Z,72.48
2023-05-12T18:44:13.005Z,72.95
2023-05-12T18:46:40.815Z,72.63
2023-05-12T18:49:10.203Z,73.37
2023-05-12T18:55:13.976Z,73.31
2023-05-12T18:57:49.732Z,73.70
2023-05-12T19:00:21.719Z,74.22
2023-05-12T19:02:52.560Z,74.13
2023-05-12T19:05:26.275Z,73.94
2023-05-12T19:07:55.691Z,73.95
2023-05-12T19:10:23.704Z,73.82
2023-05-12T19:12:52.254Z,74.14
2023-05-12T19:15:21.032Z,74.37
2023-05-12T19:17:52.103Z,74.21
2023-05-12T19:20:20.197Z,74.49
2023-05-12T19:22:50.969Z,74.28
2023-05-12T19:25:19.262Z,74.68
2023-05-12T19:27:47.617Z,74.75
2023-05-12T19:30:16.677Z,75.16
2023-05-12T19:32:45.406Z,75.14
2023-05-12T19:35:17.814Z,75.09
2023-05-12T19:37:45.892Z,75.14
2023-05-12T19:40:14.200Z,75.79
2023-05-12T19:42:42.373Z,75.49
2023-05-12T19:45:11.840Z,75.87
2023-05-12T19:47:40.589Z,75.53
2023-05-12T19:50:09.697Z,75.45
2023-05-12T19:52:38.647Z,75.78
2023-05-12T19:55:08.342Z,75.70
2023-05-12T19:57:38.683Z,75.48
2023-05-12T20:00:08.207Z,75.48
2023-05-12T20:02:42.651Z,75.45
2023-05-12T20:05:11.054Z,75.44
2023-05-12T20:07:39.149Z,75.27
2023-05-12T20:10:08.570Z,75.31
2023-05-12T20:12:36.594Z,75.12
2023-05-12T20:15:06.260Z,75.26
2023-05-12T20:17:34.212Z,75.04
2023-05-12T20:20:03.642Z,75.01
2023-05-12T20:22:33.563Z,75.10
2023-05-12T20:25:03.028Z,74.91
2023-05-12T20:27:32.956Z,74.76
2023-05-12T20:30:00.747Z,74.60
2023-05-12T20:32:28.636Z,74.69
2023-05-12T20:34:56.410Z,74.59
2023-05-12T20:37:24.367Z,74.64
2023-05-12T20:39:53.718Z,74.58
2023-05-12T20:42:21.842Z,74.36
2023-05-12T20:44:49.773Z,74.29
2023-05-12T20:47:17.511Z,74.12
2023-05-12T20:49:45.205Z,74.16
2023-05-12T20:52:14.823Z,73.96
2023-05-12T20:54:42.377Z,73.71
2023-05-12T20:57:10.303Z,73.32
2023-05-12T20:59:37.964Z,73.20
2023-05-12T21:02:06.128Z,73.25
2023-05-12T21:04:34.002Z,73.18
2023-05-12T21:07:02.637Z,73.16
2023-05-12T21:09:30.684Z,73.14
2023-05-12T21:12:00.407Z,73.04
2023-05-12T21:14:28.259Z,72.89
2023-05-12T21:16:56.082Z,72.83
2023-05-12T21:19:23.640Z,72.66
2023-05-12T21:21:51.423Z,72.66
2023-05-12T21:24:19.047Z,72.29
2023-05-12T21:26:47.608Z,72.25
2023-05-12T21:29:15.351Z,72.21
2023-05-12T21:31:43.030Z,72.22
2023-05-12T21:34:11.669Z,72.15
2023-05-12T21:36:39.645Z,71.97
2023-05-12T21:39:07.428Z,71.98
2023-05-12T21:41:37.075Z,71.83
2023-05-12T21:44:05.963Z,71.67
2023-05-12T21:46:34.940Z,71.56
2023-05-12T21:49:02.679Z,71.47
2023-05-12T21:51:31.781Z,71.43
2023-05-12T21:54:00.138Z,71.30
2023-05-12T21:56:28.024Z,71.23
2023-05-12T21:58:55.686Z,71.17
2023-05-12T22:01:24.151Z,71.21
2023-05-12T22:03:51.807Z,71.17
2023-05-12T22:06:20.101Z,71.15
2023-05-12T22:08:48.064Z,70.96
2023-05-12T22:11:18.061Z,70.86
2023-05-12T22:13:46.083Z,70.87
2023-05-12T22:16:14.064Z,70.84
2023-05-12T22:18:45.065Z,70.78
2023-05-12T22:21:13.024Z,70.64
2023-05-12T22:23:42.713Z,70.48
2023-05-12T22:26:11.051Z,70.48
2023-05-12T22:28:39.126Z,70.39
2023-05-12T22:31:07.138Z,70.48
2023-05-12T22:33:34.757Z,70.20
2023-05-12T22:36:02.839Z,69.96
2023-05-12T22:38:30.591Z,69.70
2023-05-12T22:40:58.216Z,69.59
2023-05-12T22:43:25.857Z,69.46
2023-05-12T22:45:57.087Z,69.36
2023-05-12T22:48:25.088Z,69.10
2023-05-12T22:50:55.551Z,68.90
2023-05-12T22:53:24.330Z,69.12
2023-05-12T22:55:52.105Z,69.04
2023-05-12T22:58:20.036Z,68.80
2023-05-12T23:00:47.644Z,68.66
2023-05-12T23:03:15.335Z,68.39
2023-05-12T23:05:43.161Z,68.04
2023-05-12T23:08:10.930Z,67.69
2023-05-12T23:10:39.105Z,67.57
2023-05-12T23:13:06.908Z,66.69
2023-05-12T23:15:34.669Z,66.96
2023-05-12T23:18:02.384Z,66.97
2023-05-12T23:20:29.978Z,66.69
2023-05-12T23:22:57.723Z,66.66
2023-05-12T23:25:25.544Z,66.62
2023-05-12T23:27:53.272Z,66.55
2023-05-12T23:30:21.174Z,66.57
2023-05-12T23:32:49.962Z,66.42
2023-05-12T23:35:17.694Z,66.43
2023-05-12T23:37:45.263Z,66.50
2023-05-12T23:40:12.984Z,66.54
2023-05-12T23:42:40.911Z,66.60
2023-05-12T23:45:09.930Z,66.63
2023-05-12T23:47:37.759Z,66.70
2023-05-12T23:50:07.381Z,66.67
2023-05-12T23:52:35.221Z,66.79
2023-05-12T23:55:03.299Z,66.84
2023-05-12T23:57:30.905Z,66.98
2023-05-12T23:59:58.542Z,67.07
